Wilmington Air Park (ILN)

 

Airport Diagram
Current Weather/Forecast (MVFR Conditions)
METAR KILN 071154Z AUTO 32009KT 10SM OVC011 06/04 A3000 RMK AO2 SLP168 60001 70032 T00610039 10089 20056 53020
TAF KILN 071123Z 0712/0812 32010KT P6SM SCT025 TEMPO 0712/0714 BKN025 FM071600 31011G18KT P6SM SCT040 FM072100 27011G18KT P6SM VCTS BKN045CB FM080200 31009KT P6SM SCT060 FM080600 30006KT P6SM SCT250

Airport Information

All Charts
General
Chart Name View
AIRPORT DIAGRAM
TAKEOFF MINIMUMS
ALTERNATE MINIMUMS

Approaches
Chart Name Download
ILS OR LOC RWY 04L
ILS OR LOC RWY 04R
ILS OR LOC RWY 22R
ILS OR LOC RWY 22L
ILS RWY 22R (SA CAT I)
ILS RWY 22L (CAT II)
ILS RWY 22R (CAT II - III)
RNAV (GPS) RWY 04L
RNAV (GPS) RWY 22R


Airport Statistics
Departures Arrivals Local
All Collected Stats since June 2016: 98 85 2
2021 Stats: 17 24 0
May Stats: 1 0 0

Inbound Traffic (Arrivals) - 0

No inbound traffic.


Outbound Traffic (Departures) - 0

No outbound traffic.


Local Traffic (Pattern) - 0

No local traffic.